createdAt,value
2022-09-20T00:01:36.088Z,91.35
2022-09-20T00:04:06.949Z,91.36
2022-09-20T00:06:35.263Z,91.46
2022-09-20T00:09:04.554Z,91.47
2022-09-20T00:11:33.979Z,91.57
2022-09-20T00:14:03.722Z,91.55
2022-09-20T00:16:34.760Z,91.52
2022-09-20T00:19:05.119Z,91.47
2022-09-20T00:21:35.062Z,91.53
2022-09-20T00:24:04.044Z,91.55
2022-09-20T00:26:31.978Z,91.63
2022-09-20T00:29:00.309Z,91.58
2022-09-20T00:31:28.148Z,91.60
2022-09-20T00:34:16.207Z,91.57
2022-09-20T00:36:44.808Z,91.56
2022-09-20T00:39:14.573Z,91.53
2022-09-20T00:41:43.207Z,91.55
2022-09-20T00:44:43.328Z,91.60
2022-09-20T00:47:43.542Z,91.62
2022-09-20T00:50:35.769Z,91.66
2022-09-20T00:53:06.314Z,91.54
2022-09-20T00:55:37.976Z,91.57
2022-09-20T00:58:07.136Z,91.62
2022-09-20T01:00:35.005Z,91.75
2022-09-20T01:03:07.984Z,91.74
2022-09-20T01:05:37.579Z,91.86
2022-09-20T01:08:06.795Z,91.84
2022-09-20T01:10:35.001Z,91.73
2022-09-20T01:13:03.926Z,91.80
2022-09-20T01:15:34.473Z,91.87
2022-09-20T01:18:03.375Z,91.84
2022-09-20T01:20:35.258Z,91.89
2022-09-20T01:23:14.932Z,91.76
2022-09-20T01:25:57.667Z,91.70
2022-09-20T01:28:27.105Z,91.75
2022-09-20T01:31:30.421Z,91.76
2022-09-20T01:34:08.826Z,91.91
2022-09-20T01:36:44.502Z,91.93
2022-09-20T01:39:16.925Z,91.87
2022-09-20T01:42:02.416Z,91.81
2022-09-20T01:44:32.998Z,91.90
2022-09-20T01:47:23.376Z,91.88
2022-09-20T01:49:53.672Z,91.92
2022-09-20T01:52:33.540Z,91.89
2022-09-20T01:55:19.379Z,91.94
2022-09-20T01:57:56.040Z,92.00
2022-09-20T02:00:31.184Z,92.08
2022-09-20T02:03:23.734Z,92.07
2022-09-20T02:06:23.423Z,92.11
2022-09-20T02:09:03.043Z,92.02
2022-09-20T02:12:13.960Z,92.10
2022-09-20T02:14:58.271Z,92.07
2022-09-20T02:17:45.639Z,92.11
2022-09-20T02:20:31.287Z,92.09
2022-09-20T02:22:58.964Z,92.01
2022-09-20T02:25:46.090Z,92.04
2022-09-20T02:28:16.530Z,92.01
2022-09-20T02:30:52.209Z,91.95
2022-09-20T02:33:41.429Z,92.00
2022-09-20T02:36:28.027Z,92.00
2022-09-20T02:39:12.160Z,92.12
2022-09-20T02:42:03.193Z,92.10
2022-09-20T02:44:57.318Z,91.95
2022-09-20T02:47:33.310Z,91.95
2022-09-20T02:50:08.859Z,92.04
2022-09-20T02:52:42.469Z,91.95
2022-09-20T02:55:28.855Z,91.96
2022-09-20T02:58:37.979Z,91.96
2022-09-20T03:01:20.070Z,91.86
2022-09-20T03:03:57.012Z,91.94
2022-09-20T03:07:03.222Z,91.99
2022-09-20T03:09:52.034Z,92.03
2022-09-20T03:12:27.463Z,91.95
2022-09-20T03:15:18.146Z,91.97
2022-09-20T03:18:08.409Z,92.08
2022-09-20T03:20:54.640Z,92.07
2022-09-20T03:23:22.294Z,92.09
2022-09-20T03:26:24.193Z,92.02
2022-09-20T03:29:27.216Z,91.97
2022-09-20T03:32:19.275Z,91.99
2022-09-20T03:35:24.462Z,92.02
2022-09-20T03:37:55.202Z,92.14
2022-09-20T03:40:57.511Z,92.06
2022-09-20T03:44:05.514Z,92.10
2022-09-20T03:46:49.410Z,92.16
2022-09-20T03:49:48.247Z,92.11
2022-09-20T03:52:25.190Z,92.03
2022-09-20T03:55:16.091Z,92.00
2022-09-20T03:58:21.232Z,92.16
2022-09-20T04:01:00.977Z,92.07
2022-09-20T04:03:58.887Z,92.19
2022-09-20T04:06:45.165Z,92.09
2022-09-20T04:09:34.611Z,92.10
2022-09-20T04:12:07.757Z,92.13
2022-09-20T04:14:53.789Z,92.15
2022-09-20T04:17:38.575Z,92.21
2022-09-20T04:20:32.569Z,92.14
2022-09-20T04:23:16.309Z,92.16
2022-09-20T04:25:48.477Z,92.10
2022-09-20T04:28:28.976Z,92.20
2022-09-20T04:31:21.435Z,92.15
2022-09-20T04:33:52.281Z,92.14
2022-09-20T04:36:29.097Z,92.18
2022-09-20T04:39:08.901Z,92.29
2022-09-20T04:41:42.377Z,92.27
2022-09-20T04:44:46.909Z,92.21
2022-09-20T04:47:59.666Z,92.26
2022-09-20T04:50:39.642Z,92.24
2022-09-20T04:53:25.345Z,92.28
2022-09-20T04:56:00.342Z,92.22
2022-09-20T04:58:55.276Z,92.14
2022-09-20T05:02:08.465Z,92.12
2022-09-20T05:04:54.866Z,92.10
2022-09-20T05:07:50.334Z,92.05
2022-09-20T05:10:26.898Z,92.17
2022-09-20T05:13:16.822Z,92.06
2022-09-20T05:15:52.997Z,92.08
2022-09-20T05:18:39.483Z,92.04
2022-09-20T05:21:31.592Z,92.11
2022-09-20T05:24:10.722Z,92.06
2022-09-20T05:26:52.453Z,92.08
2022-09-20T05:29:51.803Z,92.10
2022-09-20T05:32:44.330Z,92.15
2022-09-20T05:35:36.569Z,92.05
2022-09-20T05:38:19.131Z,91.99
2022-09-20T05:41:25.087Z,91.95
2022-09-20T05:44:21.948Z,91.95
2022-09-20T05:47:16.809Z,91.95
2022-09-20T05:50:22.116Z,91.93
2022-09-20T05:53:04.863Z,91.90
2022-09-20T05:56:04.012Z,91.89
2022-09-20T05:59:17.942Z,91.80
2022-09-20T06:02:10.547Z,91.79
2022-09-20T06:04:51.682Z,91.78
2022-09-20T06:07:47.744Z,91.72
2022-09-20T06:10:47.969Z,91.67
2022-09-20T06:13:41.283Z,91.66
2022-09-20T06:16:18.340Z,91.71
2022-09-20T06:19:17.384Z,91.65
2022-09-20T06:21:45.992Z,91.55
2022-09-20T06:24:43.611Z,91.50
2022-09-20T06:27:19.055Z,91.49
2022-09-20T06:29:57.510Z,91.48
2022-09-20T06:32:25.274Z,91.44
2022-09-20T06:34:54.623Z,91.39
2022-09-20T06:37:43.944Z,91.38
2022-09-20T06:40:51.544Z,91.34
2022-09-20T06:43:19.611Z,91.22
2022-09-20T06:45:48.636Z,91.13
2022-09-20T06:48:16.569Z,91.07
2022-09-20T06:50:45.470Z,91.05
2022-09-20T06:53:18.034Z,91.02
2022-09-20T06:55:47.058Z,91.03
2022-09-20T06:58:15.509Z,90.93
2022-09-20T07:00:43.415Z,90.83
2022-09-20T07:03:13.197Z,90.66
2022-09-20T07:05:41.151Z,90.59
2022-09-20T07:08:09.121Z,90.45
2022-09-20T07:10:36.828Z,90.36
2022-09-20T07:13:05.703Z,90.34
2022-09-20T07:15:35.275Z,90.33
2022-09-20T07:18:03.146Z,90.37
2022-09-20T07:20:30.929Z,90.34
2022-09-20T07:22:59.794Z,90.34
2022-09-20T07:25:27.567Z,90.30
2022-09-20T07:27:55.779Z,90.19
2022-09-20T07:30:24.499Z,90.15
2022-09-20T07:32:55.155Z,90.16
2022-09-20T07:35:23.026Z,90.02
2022-09-20T07:37:57.225Z,89.48
2022-09-20T07:40:26.905Z,89.44
2022-09-20T07:42:57.411Z,89.33
2022-09-20T07:45:25.726Z,89.18
2022-09-20T07:47:54.785Z,89.14
2022-09-20T07:50:22.711Z,89.06
2022-09-20T07:52:50.682Z,89.12
2022-09-20T07:55:18.532Z,89.15
2022-09-20T07:57:46.295Z,89.11
2022-09-20T08:00:14.789Z,89.08
2022-09-20T08:02:42.743Z,88.86
2022-09-20T08:05:10.509Z,88.86
2022-09-20T08:07:39.539Z,88.83
2022-09-20T08:10:08.261Z,88.85
2022-09-20T08:15:26.135Z,89.04
2022-09-20T08:17:53.897Z,89.04
2022-09-20T08:20:21.659Z,88.96
2022-09-20T08:23:06.397Z,89.02
2022-09-20T08:25:38.548Z,88.98
2022-09-20T08:28:06.580Z,88.86
2022-09-20T08:30:34.336Z,88.87
2022-09-20T08:33:04.118Z,88.76
2022-09-20T08:35:32.002Z,88.72
2022-09-20T08:39:57.282Z,88.65
2022-09-20T08:40:49.586Z,88.45
2022-09-20T08:43:22.276Z,87.98
2022-09-20T08:45:50.740Z,88.25
2022-09-20T08:48:28.905Z,88.11
2022-09-20T08:50:56.666Z,87.27
2022-09-20T08:53:24.478Z,86.43
2022-09-20T08:55:52.402Z,85.82
2022-09-20T08:58:20.267Z,86.16
2022-09-20T09:00:48.146Z,86.46
2022-09-20T09:03:18.154Z,86.52
2022-09-20T09:05:46.628Z,86.43
2022-09-20T09:08:18.901Z,86.23
2022-09-20T09:10:54.863Z,86.15
2022-09-20T09:13:22.974Z,86.06
2022-09-20T09:15:59.056Z,86.20
2022-09-20T09:18:34.906Z,85.67
2022-09-20T09:21:05.246Z,85.55
2022-09-20T09:24:01.390Z,85.55
2022-09-20T09:26:36.957Z,85.36
2022-09-20T09:29:17.811Z,85.21
2022-09-20T09:31:49.721Z,85.13
2022-09-20T09:34:25.822Z,84.73
2022-09-20T09:36:57.050Z,84.67
2022-09-20T09:39:45.106Z,84.67
2022-09-20T09:42:29.033Z,84.94
2022-09-20T09:45:26.302Z,85.08
2022-09-20T09:47:56.467Z,85.12
2022-09-20T09:50:26.970Z,85.16
2022-09-20T09:53:22.525Z,85.07
2022-09-20T09:56:07.922Z,85.51
2022-09-20T09:59:05.708Z,85.63
2022-09-20T10:01:55.845Z,85.45
2022-09-20T10:04:41.474Z,84.94
2022-09-20T10:07:34.998Z,84.79
2022-09-20T10:10:35.061Z,84.64
2022-09-20T10:13:21.564Z,83.76
2022-09-20T10:16:01.819Z,83.56
2022-09-20T10:18:43.006Z,83.76
2022-09-20T10:21:26.020Z,83.62
2022-09-20T10:24:22.049Z,83.18
2022-09-20T10:27:33.239Z,82.94
2022-09-20T10:30:12.255Z,82.84
2022-09-20T10:32:49.941Z,82.77
2022-09-20T10:35:26.710Z,81.83
2022-09-20T10:38:06.570Z,81.81
2022-09-20T10:41:02.599Z,81.28
2022-09-20T10:43:54.736Z,80.27
2022-09-20T10:46:38.252Z,80.15
2022-09-20T10:49:25.102Z,79.16
2022-09-20T10:52:15.066Z,78.49
2022-09-20T10:54:42.818Z,79.29
2022-09-20T10:57:33.619Z,79.66
2022-09-20T11:00:22.431Z,78.88
2022-09-20T11:03:28.614Z,79.44
2022-09-20T11:06:06.542Z,79.41
2022-09-20T11:08:38.098Z,79.59
2022-09-20T11:11:17.189Z,79.22
2022-09-20T11:14:04.759Z,78.99
2022-09-20T11:16:47.016Z,78.75
2022-09-20T11:19:21.062Z,78.86
2022-09-20T11:21:58.617Z,77.55
2022-09-20T11:24:44.237Z,76.93
2022-09-20T11:27:21.853Z,76.32
2022-09-20T11:30:02.295Z,77.19
2022-09-20T11:32:36.872Z,77.40
2022-09-20T11:35:10.314Z,77.26
2022-09-20T11:37:50.978Z,77.14
2022-09-20T11:40:40.300Z,76.39
2022-09-20T11:43:15.947Z,76.03
2022-09-20T11:45:51.440Z,76.33
2022-09-20T11:48:29.445Z,76.57
2022-09-20T11:51:09.796Z,76.80
2022-09-20T11:53:40.330Z,76.36
2022-09-20T11:56:20.415Z,75.72
2022-09-20T11:58:58.173Z,75.56
2022-09-20T12:01:32.494Z,74.48
2022-09-20T12:04:33.823Z,74.63
2022-09-20T12:07:11.335Z,74.43
2022-09-20T12:09:44.321Z,74.17
2022-09-20T12:12:25.297Z,74.58
2022-09-20T12:14:59.914Z,74.59
2022-09-20T12:17:46.025Z,74.00
2022-09-20T12:20:32.843Z,73.36
2022-09-20T12:23:41.464Z,73.85
2022-09-20T12:26:21.193Z,74.12
2022-09-20T12:28:58.984Z,73.91
2022-09-20T12:31:29.842Z,73.76
2022-09-20T12:34:02.139Z,73.64
2022-09-20T12:36:35.321Z,73.57
2022-09-20T12:39:13.092Z,73.73
2022-09-20T12:41:56.609Z,73.87
2022-09-20T12:44:49.152Z,72.46
2022-09-20T12:47:24.914Z,73.63
2022-09-20T12:50:15.088Z,73.38
2022-09-20T12:52:57.908Z,73.23
2022-09-20T12:55:46.414Z,74.57
2022-09-20T12:58:17.086Z,74.41
2022-09-20T13:01:14.517Z,74.39
2022-09-20T13:03:44.048Z,75.10
2022-09-20T13:06:15.813Z,73.89
2022-09-20T13:08:48.444Z,72.75
2022-09-20T13:11:21.185Z,72.81
2022-09-20T13:13:52.029Z,72.19
2022-09-20T13:16:46.401Z,70.92
2022-09-20T13:19:21.632Z,70.33
2022-09-20T13:22:00.758Z,71.16
2022-09-20T13:24:33.043Z,70.41
2022-09-20T13:27:07.044Z,68.24
2022-09-20T13:29:40.207Z,69.24
2022-09-20T13:32:30.414Z,69.19
2022-09-20T13:35:10.265Z,69.37
2022-09-20T13:37:49.457Z,67.45
2022-09-20T13:40:41.375Z,64.59
2022-09-20T13:43:31.819Z,66.50
2022-09-20T13:46:12.581Z,68.20
2022-09-20T13:48:48.261Z,67.89
2022-09-20T13:51:20.691Z,67.79
2022-09-20T13:53:50.873Z,66.73
2022-09-20T13:56:29.775Z,67.77
2022-09-20T13:59:26.546Z,67.63
2022-09-20T14:01:58.639Z,68.44
2022-09-20T14:04:33.113Z,66.15
2022-09-20T14:07:08.424Z,65.55
2022-09-20T14:09:39.580Z,66.32
2022-09-20T14:12:08.712Z,64.98
2022-09-20T14:14:37.077Z,64.58
2022-09-20T14:17:09.039Z,64.56
2022-09-20T14:19:41.648Z,64.37
2022-09-20T14:22:19.901Z,63.93
2022-09-20T14:25:25.637Z,64.25
2022-09-20T14:28:28.894Z,62.05
2022-09-20T14:31:07.436Z,62.87
2022-09-20T14:33:42.685Z,65.40
2022-09-20T14:36:16.284Z,67.92
2022-09-20T14:38:46.399Z,69.00
2022-09-20T14:41:24.224Z,70.81
2022-09-20T14:43:58.674Z,72.45
2022-09-20T14:46:38.978Z,74.58
2022-09-20T14:49:20.744Z,76.21
2022-09-20T14:51:49.064Z,77.11
2022-09-20T14:54:37.120Z,78.17
2022-09-20T14:57:05.975Z,78.78
2022-09-20T14:59:41.826Z,79.44
2022-09-20T15:02:15.634Z,80.72
2022-09-20T15:04:54.609Z,81.18
2022-09-20T15:07:22.528Z,81.28
2022-09-20T15:09:50.596Z,81.92
2022-09-20T15:12:20.515Z,81.92
2022-09-20T15:14:49.077Z,81.83
2022-09-20T15:17:19.934Z,81.93
2022-09-20T15:19:49.133Z,82.48
2022-09-20T15:22:16.910Z,82.89
2022-09-20T15:24:44.684Z,83.95
2022-09-20T15:27:12.932Z,84.71
2022-09-20T15:29:40.747Z,85.22
2022-09-20T15:32:11.215Z,85.49
2022-09-20T15:34:39.082Z,85.90
2022-09-20T15:37:06.846Z,85.14
2022-09-20T15:39:34.671Z,85.56
2022-09-20T15:42:04.110Z,85.73
2022-09-20T15:44:32.905Z,85.71
2022-09-20T15:47:01.791Z,86.37
2022-09-20T15:49:31.200Z,86.38
2022-09-20T15:51:59.052Z,86.64
2022-09-20T15:54:26.918Z,86.49
2022-09-20T15:56:54.785Z,86.00
2022-09-20T15:59:23.516Z,86.48
2022-09-20T16:01:51.932Z,86.99
2022-09-20T16:04:20.636Z,87.02
2022-09-20T16:06:50.183Z,86.78
2022-09-20T16:09:18.952Z,86.44
2022-09-20T16:11:48.345Z,86.33
2022-09-20T16:14:16.255Z,86.62
2022-09-20T16:16:44.104Z,86.39
2022-09-20T16:19:18.386Z,86.36
2022-09-20T16:22:12.761Z,86.20
2022-09-20T16:24:40.525Z,86.37
2022-09-20T16:27:08.799Z,86.79
2022-09-20T16:29:36.769Z,87.97
2022-09-20T16:32:05.618Z,88.02
2022-09-20T16:34:35.779Z,88.06
2022-09-20T16:37:11.798Z,87.95
2022-09-20T16:39:40.618Z,88.24
2022-09-20T16:42:12.477Z,88.20
2022-09-20T16:44:42.820Z,88.31
2022-09-20T16:47:16.604Z,88.25
2022-09-20T16:49:44.677Z,88.47
2022-09-20T16:52:12.540Z,88.59
2022-09-20T16:54:40.816Z,87.97
2022-09-20T16:57:09.720Z,87.88
2022-09-20T16:59:37.467Z,87.66
2022-09-20T17:02:05.332Z,87.86
2022-09-20T17:04:33.234Z,88.13
2022-09-20T17:07:01.931Z,88.92
2022-09-20T17:09:29.955Z,89.02
2022-09-20T17:11:57.721Z,88.67
2022-09-20T17:14:25.831Z,89.58
2022-09-20T17:16:53.760Z,89.34
2022-09-20T17:19:21.633Z,88.89
2022-09-20T17:21:51.179Z,89.12
2022-09-20T17:24:20.861Z,89.25
2022-09-20T17:26:50.454Z,89.06
2022-09-20T17:29:19.853Z,89.66
2022-09-20T17:31:54.904Z,89.92
2022-09-20T17:34:25.064Z,90.10
2022-09-20T17:36:55.113Z,90.27
2022-09-20T17:39:23.596Z,90.44
2022-09-20T17:41:51.955Z,90.48
2022-09-20T17:44:19.876Z,90.63
2022-09-20T17:46:54.246Z,90.69
2022-09-20T17:49:23.668Z,90.65
2022-09-20T17:51:54.438Z,90.63
2022-09-20T17:54:24.662Z,90.67
2022-09-20T17:56:56.230Z,90.68
2022-09-20T17:59:24.818Z,90.73
2022-09-20T18:01:54.520Z,90.70
2022-09-20T18:04:24.792Z,90.81
2022-09-20T18:06:54.222Z,90.79
2022-09-20T18:09:25.392Z,90.76
2022-09-20T18:11:54.931Z,90.69
2022-09-20T18:14:28.075Z,90.79
2022-09-20T18:17:00.970Z,90.88
2022-09-20T18:19:33.556Z,90.95
2022-09-20T18:22:02.527Z,91.05
2022-09-20T18:24:31.205Z,91.07
2022-09-20T18:27:00.832Z,91.10
2022-09-20T18:29:29.446Z,91.08
2022-09-20T18:31:59.852Z,91.14
2022-09-20T18:34:32.079Z,90.99
2022-09-20T18:37:01.382Z,90.95
2022-09-20T18:39:33.525Z,91.00
2022-09-20T18:42:02.246Z,91.13
2022-09-20T18:44:34.886Z,91.01
2022-09-20T18:47:05.053Z,91.14
2022-09-20T18:49:33.529Z,91.25
2022-09-20T18:52:02.111Z,91.24
2022-09-20T18:54:33.575Z,91.16
2022-09-20T18:57:01.776Z,91.17
2022-09-20T18:59:29.781Z,91.30
2022-09-20T19:02:17.545Z,91.25
2022-09-20T19:05:01.865Z,91.14
2022-09-20T19:07:44.902Z,91.29
2022-09-20T19:10:21.593Z,91.37
2022-09-20T19:13:00.034Z,91.17
2022-09-20T19:15:52.916Z,91.23
2022-09-20T19:18:59.085Z,91.38
2022-09-20T19:21:51.923Z,91.32
2022-09-20T19:25:14.049Z,91.39
2022-09-20T19:27:42.152Z,91.45
2022-09-20T19:30:14.351Z,91.43
2022-09-20T19:32:43.893Z,91.52
2022-09-20T19:35:29.977Z,91.51
2022-09-20T19:38:15.643Z,91.55
2022-09-20T19:41:02.416Z,91.57
2022-09-20T19:43:44.692Z,91.56
2022-09-20T19:46:27.042Z,91.57
2022-09-20T19:49:13.097Z,91.57
2022-09-20T19:51:42.156Z,91.64
2022-09-20T19:54:12.475Z,91.59
2022-09-20T19:56:55.844Z,91.54
2022-09-20T19:59:26.613Z,91.56
2022-09-20T20:01:56.528Z,91.56
2022-09-20T20:04:24.709Z,91.53
2022-09-20T20:07:01.664Z,91.51
2022-09-20T20:09:55.942Z,91.50
2022-09-20T20:12:34.378Z,91.47
2022-09-20T20:15:11.827Z,91.46
2022-09-20T20:18:06.850Z,91.50
2022-09-20T20:20:44.224Z,91.52
2022-09-20T20:23:53.800Z,91.48
2022-09-20T20:26:23.954Z,91.43
2022-09-20T20:28:53.059Z,91.42
2022-09-20T20:31:21.228Z,91.41
2022-09-20T20:33:49.599Z,91.38
2022-09-20T20:36:17.800Z,91.37
2022-09-20T20:38:50.044Z,91.40
2022-09-20T20:41:20.527Z,91.31
2022-09-20T20:43:51.922Z,91.25
2022-09-20T20:46:19.760Z,91.23
2022-09-20T20:48:47.969Z,91.44
2022-09-20T20:51:18.030Z,91.55
2022-09-20T20:53:49.017Z,91.60
2022-09-20T20:56:18.385Z,91.68
2022-09-20T20:58:47.710Z,91.66
2022-09-20T21:01:24.418Z,91.61
2022-09-20T21:03:54.443Z,91.64
2022-09-20T21:06:27.929Z,91.66
2022-09-20T21:08:55.716Z,91.53
2022-09-20T21:11:26.344Z,91.51
2022-09-20T21:13:59.892Z,91.58
2022-09-20T21:16:30.670Z,91.61
2022-09-20T21:18:58.870Z,91.73
2022-09-20T21:21:32.488Z,91.66
2022-09-20T21:24:05.719Z,91.70
2022-09-20T21:26:35.494Z,91.74
2022-09-20T21:29:06.034Z,91.74
2022-09-20T21:31:36.270Z,91.92
2022-09-20T21:34:06.871Z,91.97
2022-09-20T21:36:35.949Z,91.96
2022-09-20T21:39:04.546Z,91.99
2022-09-20T21:41:35.302Z,91.81
2022-09-20T21:44:05.016Z,91.92
2022-09-20T21:46:42.543Z,91.87
2022-09-20T21:49:12.460Z,92.03
2022-09-20T21:51:42.838Z,92.07
2022-09-20T21:54:11.572Z,91.99
2022-09-20T21:56:41.343Z,92.04
2022-09-20T21:59:09.580Z,91.87
2022-09-20T22:01:40.516Z,92.03
2022-09-20T22:04:11.248Z,92.06
2022-09-20T22:06:41.364Z,92.12
2022-09-20T22:09:14.838Z,92.11
2022-09-20T22:11:45.328Z,92.07
2022-09-20T22:14:14.980Z,92.04
2022-09-20T22:16:44.815Z,91.86
2022-09-20T22:19:15.184Z,91.95
2022-09-20T22:21:45.725Z,91.99
2022-09-20T22:24:15.154Z,91.84
2022-09-20T22:26:45.868Z,91.93
2022-09-20T22:29:14.553Z,91.83
2022-09-20T22:31:47.346Z,91.77
2022-09-20T22:34:20.423Z,92.04
2022-09-20T22:36:49.137Z,92.10
2022-09-20T22:39:17.302Z,92.12
2022-09-20T22:41:47.887Z,92.11
2022-09-20T22:44:16.059Z,92.15
2022-09-20T22:46:43.831Z,92.10
2022-09-20T22:49:11.630Z,91.99
2022-09-20T22:51:39.420Z,92.01
2022-09-20T22:54:10.187Z,92.11
2022-09-20T22:56:41.421Z,92.12
2022-09-20T22:59:14.605Z,92.05
2022-09-20T23:01:45.604Z,92.08
2022-09-20T23:04:16.973Z,92.07
2022-09-20T23:06:48.003Z,92.06
2022-09-20T23:09:18.199Z,92.29
2022-09-20T23:11:46.603Z,92.24
2022-09-20T23:14:19.970Z,92.12
2022-09-20T23:16:48.480Z,92.14
2022-09-20T23:19:17.545Z,92.00
2022-09-20T23:21:45.843Z,91.98
2022-09-20T23:24:15.454Z,92.08
2022-09-20T23:26:44.621Z,92.09
2022-09-20T23:29:15.411Z,92.13
2022-09-20T23:31:46.511Z,92.16
2022-09-20T23:34:16.763Z,92.15
2022-09-20T23:36:45.588Z,92.15
2022-09-20T23:39:13.847Z,92.15
2022-09-20T23:41:43.926Z,92.26
2022-09-20T23:44:13.933Z,92.26
2022-09-20T23:46:41.740Z,92.33
2022-09-20T23:49:09.544Z,92.36
2022-09-20T23:51:37.829Z,92.32
2022-09-20T23:54:06.057Z,92.40
2022-09-20T23:56:33.912Z,92.45
2022-09-20T23:59:01.733Z,92.54
